Time;durP1;ratioP1;P1;durP2;ratioP2;P2;SDS_P1;SDS_P2;PMS_P1;PMS_P2;Temp;Humidity;BMP_temperature;BMP_pressure;BME280_temperature;BME280_humidity;BME280_pressure;Samples;Min_cycle;Max_cycle;Signal;HPM_P1;HPM_P2
2021/01/30 00:02:14;;;;;;;;;;;5.80;99.90;;;4.81;83.84;94279.38;10450184;28;2400;-87
2021/01/30 00:07:16;;;;;;;;;;;6.30;99.90;;;4.80;85.10;94285.78;10440564;28;2137;-86
2021/01/30 00:12:21;;;;;;;;;;;5.90;99.90;;;4.78;86.14;94271.16;10452241;28;2257;-86
2021/01/30 00:17:23;;;;;;;;;;;5.90;99.90;;;4.71;86.57;94279.44;10458678;28;2432;-86
2021/01/30 00:22:25;;;;;;;;;;;5.80;99.90;;;4.66;87.27;94274.16;10447645;28;2317;-86
2021/01/30 00:27:27;;;;;;;;;;;5.80;99.90;;;4.67;87.07;94272.28;10445304;28;2263;-87
2021/01/30 00:32:29;;;;;;;;;;;5.70;99.90;;;4.66;87.62;94284.00;10440270;28;1993;-86
2021/01/30 00:37:31;;;;;;;;;;;6.20;99.90;;;4.64;87.62;94286.91;10443054;28;2231;-86
2021/01/30 00:42:33;;;;;;;;;;;7.00;99.90;;;4.65;88.19;94277.09;10448227;28;2376;-87
2021/01/30 00:47:34;;;;;;;;;;;6.70;99.90;;;4.64;88.41;94302.88;10462263;28;1683;-88
2021/01/30 00:52:37;;;;;;;;;;;5.80;99.90;;;4.66;88.27;94290.13;10476156;28;2822;-86
2021/01/30 00:57:39;;;;;;;;;;;5.70;99.90;;;4.64;89.07;94294.91;10486334;28;2073;-87
2021/01/30 01:02:41;;;;;;;;;;;6.10;99.90;;;4.63;88.96;94287.19;10452785;28;2209;-85
2021/01/30 01:07:43;;;;;;;;;;;6.10;99.90;;;4.64;88.94;94297.56;10452046;28;2333;-85
2021/01/30 01:12:45;;;;;;;;;;;5.70;99.90;;;4.64;89.04;94308.19;10450380;28;2385;-86
2021/01/30 01:17:47;;;;;;;;;;;5.70;99.90;;;4.64;89.01;94324.16;10446579;28;2323;-85
2021/01/30 01:22:49;;;;;;;;;;;5.70;99.90;;;4.59;89.92;94319.69;10449993;28;2352;-87
2021/01/30 01:27:51;;;;;;;;;;;5.70;99.90;;;4.57;89.17;94315.69;10445186;28;2239;-86
2021/01/30 01:32:53;;;;;;;;;;;6.10;99.90;;;4.68;88.59;94327.91;10451745;28;2487;-86
2021/01/30 01:37:55;;;;;;;;;;;6.20;99.90;;;4.74;88.15;94312.69;10446769;28;2444;-85
2021/01/30 01:42:57;;;;;;;;;;;6.00;99.90;;;4.79;86.48;94326.00;10463963;28;2396;-86
2021/01/30 01:47:59;;;;;;;;;;;6.20;99.90;;;4.85;86.10;94331.03;10449083;28;2429;-85
2021/01/30 01:53:04;;;;;;;;;;;5.90;99.90;;;4.87;85.65;94344.06;10477647;28;2187;-86
2021/01/30 01:58:06;;;;;;;;;;;6.10;99.90;;;4.94;85.34;94333.13;10458981;28;2841;-86
2021/01/30 02:03:08;;;;;;;;;;;6.30;99.90;;;4.91;85.52;94339.81;10461361;28;2432;-86
2021/01/30 02:08:10;;;;;;;;;;;6.00;99.90;;;4.87;85.71;94349.38;10474187;28;1863;-85
2021/01/30 02:13:11;;;;;;;;;;;6.00;99.90;;;4.79;85.86;94353.41;10488316;28;2345;-86
2021/01/30 02:18:13;;;;;;;;;;;5.90;99.90;;;4.80;85.56;94360.34;10495499;28;2601;-87
2021/01/30 02:23:15;;;;;;;;;;;5.90;99.90;;;4.76;86.45;94366.47;10491857;28;1975;-87
2021/01/30 02:28:17;;;;;;;;;;;5.90;99.90;;;4.64;86.57;94364.09;10488121;28;2800;-87
2021/01/30 02:33:19;;;;;;;;;;;6.50;99.90;;;4.52;87.43;94367.06;10471365;28;2526;-83
2021/01/30 02:38:21;;;;;;;;;;;5.70;99.90;;;4.54;87.31;94374.78;10474469;28;2432;-85
2021/01/30 02:43:23;;;;;;;;;;;5.70;99.90;;;4.57;86.35;94376.88;10464292;28;2332;-87
2021/01/30 02:48:25;;;;;;;;;;;5.70;99.90;;;4.63;84.73;94373.16;10477892;28;2473;-85
2021/01/30 02:53:26;;;;;;;;;;;5.80;99.90;;;4.60;84.55;94361.19;10483332;28;2390;-85
2021/01/30 02:58:28;;;;;;;;;;;5.70;99.90;;;4.61;84.23;94377.97;10479675;28;2619;-86
2021/01/30 03:03:30;;;;;;;;;;;5.70;99.90;;;4.63;83.57;94365.16;10451844;28;2301;-87
2021/01/30 03:08:32;;;;;;;;;;;5.80;99.90;;;4.64;84.22;94381.94;10457044;28;2420;-86
2021/01/30 03:13:34;;;;;;;;;;;5.70;99.90;;;4.59;84.49;94375.56;10450722;28;2155;-87
2021/01/30 03:18:36;;;;;;;;;;;6.10;99.90;;;4.60;84.28;94360.41;10472137;28;2602;-85
2021/01/30 03:23:38;;;;;;;;;;;6.00;99.90;;;4.59;84.94;94356.16;10451108;28;2436;-86
2021/01/30 03:28:40;;;;;;;;;;;5.70;99.90;;;4.59;84.72;94361.47;10457659;28;2593;-84
2021/01/30 03:33:41;;;;;;;;;;;5.70;99.90;;;4.57;84.16;94358.25;10439608;28;2459;-84
2021/01/30 03:38:43;;;;;;;;;;;5.70;99.90;;;4.62;84.30;94366.25;10439988;28;2147;-87
2021/01/30 03:43:45;;;;;;;;;;;5.70;99.90;;;4.66;84.22;94363.84;10449011;28;2527;-86
2021/01/30 03:48:47;;;;;;;;;;;5.90;99.90;;;4.67;84.49;94355.59;10460058;28;1951;-87
2021/01/30 03:53:49;;;;;;;;;;;5.80;99.90;;;4.69;83.82;94364.09;10455416;28;2013;-87
2021/01/30 03:58:51;;;;;;;;;;;5.80;99.90;;;4.73;83.63;94357.16;10463244;28;2151;-86
2021/01/30 04:03:53;;;;;;;;;;;5.80;99.90;;;4.74;83.06;94355.28;10473721;28;2602;-87
2021/01/30 04:08:55;;;;;;;;;;;6.60;99.90;;;4.66;83.69;94377.16;10475630;28;1743;-86
2021/01/30 04:13:57;;;;;;;;;;;5.80;99.90;;;4.74;82.92;94361.41;10480457;28;2218;-86
2021/01/30 04:18:59;;;;;;;;;;;5.80;99.90;;;4.72;83.65;94352.13;10464549;28;2108;-83
2021/01/30 04:24:03;;;;;;;;;;;5.80;99.90;;;4.69;83.12;94342.78;10452721;28;2001;-85
2021/01/30 04:29:05;;;;;;;;;;;7.20;99.90;;;4.73;82.61;94346.53;10452434;28;2534;-85
2021/01/30 04:34:07;;;;;;;;;;;6.40;99.90;;;4.70;82.77;94341.72;10454249;28;2679;-85
2021/01/30 04:39:09;;;;;;;;;;;5.80;99.90;;;4.67;82.20;94344.16;10450030;28;2313;-84
2021/01/30 04:44:11;;;;;;;;;;;5.80;99.90;;;4.70;82.24;94335.59;10450419;28;2439;-87
2021/01/30 04:49:13;;;;;;;;;;;6.30;99.90;;;4.76;80.88;94335.31;10447956;28;2451;-87
2021/01/30 04:54:15;;;;;;;;;;;6.30;99.90;;;4.74;80.44;94334.78;10454176;28;2537;-86
2021/01/30 04:59:16;;;;;;;;;;;5.80;99.90;;;4.66;80.33;94332.69;10459814;28;2340;-86
2021/01/30 05:04:18;;;;;;;;;;;6.60;99.90;;;4.59;79.87;94337.53;10481580;28;2353;-86
2021/01/30 05:09:20;;;;;;;;;;;5.70;99.90;;;4.54;79.96;94329.53;10493023;28;2305;-86
2021/01/30 05:14:22;;;;;;;;;;;5.70;99.90;;;4.49;80.59;94330.34;10455400;28;2416;-85
2021/01/30 05:19:24;;;;;;;;;;;6.70;99.90;;;4.50;80.05;94326.63;10459775;28;2517;-87
2021/01/30 05:24:25;;;;;;;;;;;5.60;99.90;;;4.58;79.35;94327.91;10488845;28;2258;-86
2021/01/30 05:29:27;;;;;;;;;;;5.60;99.90;;;4.58;80.98;94325.25;10471575;28;2400;-87
2021/01/30 05:34:29;;;;;;;;;;;5.60;99.90;;;4.47;82.26;94323.72;10462573;28;2621;-85
2021/01/30 05:39:31;;;;;;;;;;;5.90;99.90;;;4.42;82.16;94305.09;10458045;28;2546;-85
2021/01/30 05:44:34;;;;;;;;;;;6.00;99.90;;;4.40;82.79;94297.38;10450086;28;2504;-86
2021/01/30 05:49:35;;;;;;;;;;;6.70;99.90;;;4.40;82.90;94301.91;10450705;28;2510;-86
2021/01/30 05:54:37;;;;;;;;;;;5.50;99.90;;;4.38;82.81;94280.09;10462020;28;2416;-86
2021/01/30 05:59:39;;;;;;;;;;;6.10;99.90;;;4.41;82.42;94274.25;10473006;28;2381;-87
2021/01/30 06:04:41;;;;;;;;;;;6.10;99.90;;;4.47;82.24;94273.16;10465714;28;2372;-87
2021/01/30 06:09:43;;;;;;;;;;;5.50;99.90;;;4.56;81.61;94271.50;10467749;28;2337;-87
2021/01/30 06:14:44;;;;;;;;;;;6.50;99.90;;;4.59;81.64;94281.63;10470132;28;2380;-85
2021/01/30 06:19:46;;;;;;;;;;;5.70;99.90;;;4.63;81.67;94280.00;10468712;28;2100;-86
2021/01/30 06:24:48;;;;;;;;;;;7.20;99.90;;;4.69;80.74;94291.44;10475133;28;2456;-87
2021/01/30 06:29:50;;;;;;;;;;;5.90;99.90;;;4.68;80.71;94287.19;10477534;28;2511;-88
2021/01/30 06:34:51;;;;;;;;;;;5.80;99.90;;;4.72;80.75;94285.56;10458592;28;2511;-87
2021/01/30 06:39:54;;;;;;;;;;;5.70;99.90;;;4.74;80.46;94280.75;10485596;28;2199;-88
2021/01/30 06:44:55;;;;;;;;;;;6.80;99.90;;;4.76;80.50;94287.41;10453983;28;1914;-88
2021/01/30 06:49:57;;;;;;;;;;;5.90;99.90;;;4.70;81.79;94277.84;10450613;28;2420;-86
2021/01/30 06:54:59;;;;;;;;;;;6.60;99.90;;;4.65;81.59;94280.53;10454254;28;2516;-85
2021/01/30 07:00:04;;;;;;;;;;;5.90;99.90;;;4.73;80.18;94285.28;10463580;28;2508;-85
2021/01/30 07:05:06;;;;;;;;;;;5.80;99.90;;;4.75;80.34;94285.81;10439543;28;2456;-86
2021/01/30 07:10:08;;;;;;;;;;;5.80;99.90;;;4.85;78.95;94277.00;10461565;28;2480;-86
2021/01/30 07:15:09;;;;;;;;;;;6.80;99.90;;;4.95;78.17;94281.44;10456327;28;2841;-84
2021/01/30 07:20:11;;;;;;;;;;;6.00;99.90;;;4.99;78.28;94282.50;10465088;28;1911;-86
2021/01/30 07:25:14;;;;;;;;;;;6.00;99.90;;;5.00;77.89;94270.78;10452203;28;2059;-86
2021/01/30 07:30:15;;;;;;;;;;;6.10;99.90;;;5.02;78.68;94265.97;10469381;28;2452;-84
2021/01/30 07:35:17;;;;;;;;;;;6.10;99.90;;;5.07;78.24;94261.41;10463613;28;2954;-85
2021/01/30 07:40:19;;;;;;;;;;;6.10;99.90;;;5.13;77.13;94247.00;10462896;28;2309;-85
2021/01/30 07:45:29;;;;;;;;;;;6.50;99.90;;;5.22;76.62;94247.22;10494063;28;2077;-85
2021/01/30 07:50:32;;;;;;;;;;;6.90;99.90;;;5.26;76.35;94242.13;10470628;28;2369;-85
2021/01/30 07:55:35;;;;;;;;;;;6.30;99.90;;;5.30;76.80;94246.63;10485630;28;2524;-85
2021/01/30 08:00:37;;;;;;;;;;;6.40;99.90;;;5.35;75.82;94233.25;10464650;28;2418;-87
2021/01/30 08:05:41;;;;;;;;;;;7.60;99.90;;;5.37;75.22;94231.09;10460235;28;2451;-87
2021/01/30 08:10:43;;;;;;;;;;;6.50;99.90;;;5.51;75.38;94217.16;10469011;28;1839;-85
2021/01/30 08:15:45;;;;;;;;;;;6.50;99.90;;;5.46;74.29;94204.66;10462650;28;2432;-86
2021/01/30 08:20:48;;;;;;;;;;;7.30;99.90;;;5.50;75.56;94208.34;10468341;28;2425;-85
2021/01/30 08:25:50;;;;;;;;;;;6.50;99.90;;;5.50;75.00;94207.56;10484299;28;2282;-86
2021/01/30 08:30:53;;;;;;;;;;;6.50;99.90;;;5.55;75.75;94199.53;10468303;28;2465;-85
2021/01/30 08:35:55;;;;;;;;;;;6.60;99.90;;;5.58;74.56;94198.94;10452264;28;2457;-87
2021/01/30 08:40:57;;;;;;;;;;;6.60;99.90;;;5.56;74.56;94195.78;10458370;28;2147;-85
2021/01/30 08:45:59;;;;;;;;;;;8.00;99.90;;;5.80;74.42;94191.28;10449311;28;2329;-83
2021/01/30 08:51:04;;;;;;;;;;;6.80;99.90;;;5.88;73.22;94188.00;10461623;28;2460;-84
2021/01/30 08:56:05;;;;;;;;;;;6.90;99.90;;;6.16;73.75;94198.94;10465349;28;2372;-85
2021/01/30 09:01:07;;;;;;;;;;;7.10;99.90;;;6.31;71.25;94190.78;10452457;28;2623;-83
2021/01/30 09:06:09;;;;;;;;;;;7.20;99.90;;;6.30;71.58;94186.53;10439248;28;2381;-84
2021/01/30 09:11:11;;;;;;;;;;;7.30;99.90;;;6.17;72.18;94193.34;10451237;28;2242;-83
2021/01/30 09:16:13;;;;;;;;;;;7.30;99.90;;;6.33;71.52;94199.28;10464851;28;2428;-83
2021/01/30 09:21:15;;;;;;;;;;;7.40;99.90;;;6.43;71.35;94193.81;10471201;28;2007;-85
2021/01/30 09:26:17;;;;;;;;;;;7.40;99.90;;;6.53;70.85;94197.44;10483811;28;2378;-84
2021/01/30 09:37:10;;;;;;;;;;;7.60;99.90;;;6.80;68.69;94189.59;10475741;28;1771;-82
2021/01/30 09:42:12;;;;;;;;;;;7.80;99.90;;;6.76;69.32;94188.59;10478895;28;2056;-82
2021/01/30 09:47:18;;;;;;;;;;;7.80;99.90;;;6.96;68.63;94180.28;10456313;28;2187;-84
2021/01/30 09:52:20;;;;;;;;;;;7.90;99.90;;;7.27;67.93;94179.84;10444361;28;2408;-86
2021/01/30 09:57:22;;;;;;;;;;;8.90;99.90;;;7.36;67.68;94167.38;10459658;28;2495;-85
2021/01/30 10:02:24;;;;;;;;;;;8.30;99.90;;;7.63;65.36;94176.56;10473415;28;2205;-85
2021/01/30 10:07:26;;;;;;;;;;;8.50;99.90;;;7.87;65.26;94166.53;10465464;28;1549;-85
2021/01/30 10:12:31;;;;;;;;;;;8.80;99.90;;;7.88;65.72;94168.09;10456198;28;1665;-87
2021/01/30 10:17:33;;;;;;;;;;;9.60;99.90;;;8.16;65.54;94152.09;10462479;28;1175;-87
2021/01/30 10:22:35;;;;;;;;;;;9.00;99.90;;;8.30;63.12;94142.94;10479725;28;1898;-85
2021/01/30 10:27:37;;;;;;;;;;;9.20;99.90;;;8.10;62.44;94146.81;10486117;28;1652;-88
2021/01/30 10:32:39;;;;;;;;;;;9.80;98.00;;;8.19;62.33;94140.75;10474661;28;1733;-88
2021/01/30 10:37:41;;;;;;;;;;;9.20;97.70;;;8.02;61.94;94126.13;10483172;28;1650;-85
2021/01/30 10:42:43;;;;;;;;;;;9.10;96.60;;;7.96;61.52;94126.50;10468288;28;1913;-85
2021/01/30 10:47:45;;;;;;;;;;;9.10;95.90;;;7.78;62.20;94122.81;10462053;28;1750;-86
2021/01/30 10:52:51;;;;;;;;;;;8.90;94.90;;;7.76;61.75;94111.59;10453952;28;1796;-86
2021/01/30 10:57:54;;;;;;;;;;;10.20;95.70;;;7.71;61.68;94112.53;10467381;28;1543;-85
2021/01/30 11:02:57;;;;;;;;;;;9.20;94.20;;;7.78;61.02;94099.53;10459162;28;1979;-84
2021/01/30 11:08:00;;;;;;;;;;;10.20;94.80;;;7.74;61.11;94097.75;10478167;28;2351;-87
2021/01/30 11:13:07;;;;;;;;;;;8.80;93.00;;;7.80;60.73;94102.72;10454537;28;2305;-85
2021/01/30 11:18:09;;;;;;;;;;;8.80;92.40;;;7.74;61.42;94097.75;10444267;28;2324;-86
2021/01/30 11:23:21;;;;;;;;;;;8.80;92.70;;;7.69;62.51;94101.31;10445516;28;2215;-86
2021/01/30 11:28:30;;;;;;;;;;;8.80;93.00;;;7.81;61.32;94098.16;10458180;28;2329;-85
2021/01/30 11:33:34;;;;;;;;;;;8.80;92.40;;;7.85;61.42;94091.13;10440677;28;2304;-87
2021/01/30 11:38:37;;;;;;;;;;;9.50;92.50;;;8.09;59.99;94094.41;10439888;28;2245;-84
2021/01/30 11:43:48;;;;;;;;;;;10.30;91.80;;;8.49;60.17;94089.31;10450830;28;2316;-86
2021/01/30 11:48:53;;;;;;;;;;;9.30;91.30;;;8.28;60.09;94085.47;10463752;28;2245;-85
2021/01/30 11:53:57;;;;;;;;;;;10.70;91.00;;;8.25;60.88;94072.66;10467772;28;2360;-85
2021/01/30 11:58:59;;;;;;;;;;;9.20;90.70;;;8.47;59.15;94072.75;10449105;28;2588;-85
2021/01/30 12:04:12;;;;;;;;;;;9.50;89.90;;;8.29;58.51;94060.28;10457505;28;2292;-85
2021/01/30 12:09:13;;;;;;;;;;;10.20;88.40;;;8.35;59.06;94061.75;10453315;28;2526;-85
2021/01/30 12:14:15;;;;;;;;;;;9.20;89.00;;;8.33;58.70;94045.16;10454154;28;3141;-85
2021/01/30 12:19:18;;;;;;;;;;;10.70;88.70;;;8.43;58.86;94036.16;10451835;28;2194;-86
2021/01/30 12:24:27;;;;;;;;;;;9.40;88.30;;;8.51;57.96;94028.19;10449136;28;2336;-83
2021/01/30 12:29:30;;;;;;;;;;;10.00;87.50;;;8.42;58.30;94022.00;10460546;28;2262;-83
2021/01/30 12:34:36;;;;;;;;;;;9.40;87.30;;;8.31;58.95;94024.06;10466768;28;2217;-84
2021/01/30 12:39:48;;;;;;;;;;;9.40;87.60;;;8.28;58.91;94016.66;10480787;28;1921;-83
2021/01/30 12:44:53;;;;;;;;;;;10.70;88.10;;;8.15;60.00;94014.00;10466876;28;2255;-86
2021/01/30 12:50:07;;;;;;;;;;;9.20;88.20;;;8.01;61.12;94012.13;10483612;28;2348;-84
2021/01/30 12:55:31;;;;;;;;;;;9.10;88.90;;;7.73;60.96;93994.53;10455423;28;2238;-87
2021/01/30 13:00:36;;;;;;;;;;;9.70;89.30;;;7.68;61.81;93986.59;10458230;28;2336;-85
2021/01/30 13:05:39;;;;;;;;;;;10.10;90.80;;;7.59;63.14;93984.63;10451612;28;2029;-85
2021/01/30 13:10:44;;;;;;;;;;;8.60;91.00;;;7.53;63.02;93985.84;10442244;28;2252;-85
2021/01/30 13:15:45;;;;;;;;;;;8.50;91.80;;;7.48;62.90;93977.91;10479436;28;2209;-85
2021/01/30 13:38:48;;;;;;;;;;;10.10;96.00;;;7.31;67.89;93962.44;10553770;28;2220;-85
2021/01/30 13:44:16;;;;;;;;;;;8.90;97.10;;;7.30;68.08;93963.53;10527800;28;1918;-84
2021/01/30 13:49:20;;;;;;;;;;;8.30;97.30;;;7.32;68.64;93952.56;10545912;28;2287;-85
2021/01/30 13:54:24;;;;;;;;;;;8.80;98.50;;;7.17;69.94;93945.63;10550740;28;2115;-84
2021/01/30 13:59:29;;;;;;;;;;;8.30;99.10;;;7.14;68.05;93934.75;10530475;28;2162;-85
2021/01/30 14:04:33;;;;;;;;;;;9.50;98.00;;;7.23;68.86;93932.97;10537451;28;1965;-84
2021/01/30 14:09:36;;;;;;;;;;;9.70;99.70;;;7.22;69.15;93934.06;10553907;28;1652;-83
2021/01/30 14:14:40;;;;;;;;;;;8.30;99.10;;;6.93;70.03;93928.97;10520414;28;1296;-84
2021/01/30 14:19:45;;;;;;;;;;;8.10;99.10;;;8.07;70.93;93921.81;10536823;28;1563;-85
2021/01/30 14:24:46;;;;;;;;;;;8.50;99.90;;;7.62;67.95;93928.97;10544958;28;1957;-86
2021/01/30 14:29:50;;;;;;;;;;;10.10;99.90;;;7.72;68.54;93918.84;10527422;28;1505;-86
2021/01/30 14:34:57;;;;;;;;;;;8.80;98.70;;;6.82;70.86;93919.59;10527667;28;1378;-86
2021/01/30 14:40:05;;;;;;;;;;;8.30;99.90;;;6.05;74.78;93906.72;10531123;28;1632;-85
2021/01/30 14:45:12;;;;;;;;;;;7.40;99.90;;;5.52;77.92;93915.69;10523867;28;1902;-81
2021/01/30 14:50:17;;;;;;;;;;;6.90;99.90;;;5.23;78.94;93909.69;10547679;28;1287;-80
2021/01/30 14:55:40;;;;;;;;;;;6.50;99.90;;;5.04;81.44;93904.31;10538211;28;1584;-83
2021/01/30 15:06:03;;;;;;;;;;;6.00;99.90;;;4.86;84.22;93900.53;10560290;28;1960;-82
2021/01/30 15:11:05;;;;;;;;;;;6.70;99.90;;;4.78;84.80;93891.31;10557759;28;2006;-83
2021/01/30 15:16:08;;;;;;;;;;;6.00;99.90;;;4.72;85.24;93887.09;10520627;28;1607;-85
2021/01/30 15:21:13;;;;;;;;;;;5.90;99.90;;;4.63;86.86;93888.78;10538510;28;1965;-84
2021/01/30 15:26:15;;;;;;;;;;;5.80;99.90;;;4.61;87.19;93891.72;10541204;28;1606;-84
2021/01/30 15:31:17;;;;;;;;;;;6.40;99.90;;;4.57;87.51;93887.25;10523430;28;1538;-85
2021/01/30 15:36:20;;;;;;;;;;;6.80;99.90;;;4.52;88.21;93885.44;10514717;28;1156;-85
2021/01/30 15:41:33;;;;;;;;;;;6.80;99.90;;;4.57;89.33;93881.91;10547585;28;1894;-84
2021/01/30 15:46:35;;;;;;;;;;;5.60;99.90;;;4.52;89.18;93882.00;10533468;28;1240;-84
2021/01/30 15:51:39;;;;;;;;;;;5.60;99.90;;;4.50;89.49;93878.81;10522531;28;1623;-83
2021/01/30 15:56:47;;;;;;;;;;;6.60;99.90;;;4.47;90.18;93877.50;10536017;28;1144;-85
2021/01/30 16:01:50;;;;;;;;;;;5.50;99.90;;;4.43;90.10;93881.78;10519584;28;1890;-86
2021/01/30 16:06:55;;;;;;;;;;;5.50;99.90;;;4.36;90.04;93880.53;10527891;28;1489;-86
2021/01/30 16:12:08;;;;;;;;;;;5.50;99.90;;;4.31;90.58;93874.19;10528653;28;1909;-85
2021/01/30 16:17:18;;;;;;;;;;;5.30;99.90;;;4.25;89.28;93872.66;10534381;28;1147;-85
2021/01/30 16:22:24;;;;;;;;;;;5.30;99.90;;;4.16;90.50;93871.69;10538296;28;1967;-85
2021/01/30 16:27:34;;;;;;;;;;;5.10;99.90;;;4.03;88.73;93867.81;10538827;28;1443;-84
2021/01/30 16:33:04;;;;;;;;;;;5.20;99.90;;;3.91;86.90;93875.34;10531088;28;1797;-83
2021/01/30 16:38:10;;;;;;;;;;;5.30;99.90;;;3.87;88.77;93868.19;10513304;28;1708;-83
2021/01/30 16:43:14;;;;;;;;;;;5.00;99.90;;;3.82;90.00;93868.22;10510879;28;1979;-84
2021/01/30 16:48:20;;;;;;;;;;;6.60;99.90;;;3.69;88.35;93857.19;10513330;28;1573;-85
2021/01/30 16:53:22;;;;;;;;;;;4.90;99.90;;;3.73;90.07;93868.03;10511092;28;1367;-83
2021/01/30 16:58:24;;;;;;;;;;;5.80;99.90;;;3.67;87.98;93859.31;10516656;28;1535;-85
2021/01/30 17:03:26;;;;;;;;;;;5.70;99.90;;;3.67;89.11;93866.47;10542937;28;1890;-79
2021/01/30 17:08:30;;;;;;;;;;;4.70;99.90;;;3.74;89.59;93859.78;10523900;28;1638;-84
2021/01/30 17:13:44;;;;;;;;;;;6.50;99.90;;;3.69;91.03;93872.31;10522045;28;1903;-82
2021/01/30 17:24:54;;;;;;;;;;;4.80;99.90;;;3.61;89.22;93860.41;10519065;28;1957;-83
2021/01/30 17:30:02;;;;;;;;;;;4.70;99.90;;;3.69;89.22;93865.16;10521706;28;1535;-83
2021/01/30 17:35:08;;;;;;;;;;;5.50;99.90;;;3.59;90.18;93867.88;10536058;28;1331;-83
2021/01/30 17:40:34;;;;;;;;;;;4.70;99.90;;;3.62;90.39;93861.19;10527119;28;1268;-82
2021/01/30 17:51:29;;;;;;;;;;;4.60;99.90;;;3.51;90.85;93860.50;10544880;28;1741;-82
2021/01/30 17:56:52;;;;;;;;;;;4.70;99.90;;;3.40;91.40;93858.97;10549104;28;1174;-83
2021/01/30 18:02:12;;;;;;;;;;;4.50;99.90;;;3.33;91.20;93853.16;10537332;28;1890;-80
2021/01/30 18:07:15;;;;;;;;;;;4.40;99.90;;;3.36;92.24;93860.56;10555134;28;1411;-82
2021/01/30 18:12:17;;;;;;;;;;;4.80;99.90;;;3.43;92.34;93853.88;10539857;28;1575;-83
2021/01/30 18:17:19;;;;;;;;;;;4.40;99.90;;;3.32;91.58;93855.03;10552899;28;1585;-84
2021/01/30 18:22:22;;;;;;;;;;;4.40;99.90;;;3.21;91.79;93848.97;10527238;28;1911;-84
2021/01/30 18:27:24;;;;;;;;;;;6.40;99.90;;;3.14;91.13;93845.84;10533809;28;1679;-83
2021/01/30 18:32:38;;;;;;;;;;;5.40;99.90;;;3.20;92.31;93850.06;10524379;28;1613;-83
2021/01/30 18:37:42;;;;;;;;;;;4.30;99.90;;;3.32;93.11;93840.97;10550463;28;1160;-82
2021/01/30 18:42:51;;;;;;;;;;;6.10;99.90;;;3.19;92.69;93845.81;10546242;28;1956;-82
2021/01/30 18:48:00;;;;;;;;;;;4.30;99.90;;;3.00;92.65;93834.25;10563453;28;1180;-78
2021/01/30 18:53:13;;;;;;;;;;;5.60;99.90;;;2.94;91.59;93846.72;10564272;28;1530;-82
2021/01/30 19:03:55;;;;;;;;;;;4.60;99.90;;;2.87;93.05;93846.25;10542830;28;1890;-79
2021/01/30 19:09:14;;;;;;;;;;;3.80;99.90;;;2.86;91.88;93849.16;10539731;28;1669;-84
2021/01/30 19:14:16;;;;;;;;;;;4.80;99.90;;;2.75;92.85;93847.63;10532481;28;1822;-83
2021/01/30 19:19:29;;;;;;;;;;;3.90;99.90;;;2.84;92.56;93851.28;10542422;28;1486;-84
2021/01/30 19:24:49;;;;;;;;;;;4.80;99.90;;;2.79;92.45;93853.94;10551422;28;1902;-82
2021/01/30 19:30:22;;;;;;;;;;;;;;;;;;;;;
2021/01/30 19:41:13;;;;;;;;;;;3.80;99.90;;;2.71;92.88;93852.66;10318811;28;2825;-86
2021/01/30 19:46:15;;;;;;;;;;;3.70;99.90;;;2.69;92.89;93863.56;10345129;28;2228;-83
2021/01/30 19:56:55;;;;;;;;;;;3.70;99.90;;;2.63;93.67;93861.19;10351084;28;1632;-83
2021/01/30 20:01:57;;;;;;;;;;;3.70;99.90;;;2.68;93.92;93869.94;10337541;28;1973;-82
2021/01/30 20:07:03;;;;;;;;;;;5.70;99.90;;;2.60;92.87;93867.81;10342704;28;1642;-84
2021/01/30 20:12:07;;;;;;;;;;;5.30;99.90;;;2.52;92.39;93860.41;10326454;28;2039;-83
2021/01/30 20:17:09;;;;;;;;;;;5.20;99.90;;;2.42;92.58;93860.47;10331076;28;1603;-85
2021/01/30 20:22:13;;;;;;;;;;;4.20;99.90;;;2.41;94.00;93866.81;10343547;28;1906;-84
2021/01/30 20:27:15;;;;;;;;;;;5.60;99.90;;;2.42;94.56;93865.75;10352990;28;2064;-85
2021/01/30 20:32:27;;;;;;;;;;;3.50;99.90;;;2.34;93.60;93872.38;10336114;28;1505;-85
2021/01/30 20:37:32;;;;;;;;;;;4.70;99.90;;;2.22;93.41;93876.38;10344689;28;1296;-83
2021/01/30 20:42:38;;;;;;;;;;;4.20;99.90;;;2.17;93.82;93869.25;10342489;28;1899;-84
2021/01/30 20:47:50;;;;;;;;;;;3.20;99.90;;;2.07;94.13;93871.91;10322131;28;1304;-82
2021/01/30 20:52:53;;;;;;;;;;;4.80;99.90;;;2.08;93.75;93866.34;10341628;28;1576;-83
2021/01/30 20:57:55;;;;;;;;;;;3.80;99.90;;;1.97;94.00;93866.59;10331956;28;1241;-85
2021/01/30 21:03:15;;;;;;;;;;;4.70;99.90;;;2.00;94.17;93864.22;10335408;28;2262;-83
2021/01/30 21:08:25;;;;;;;;;;;4.70;99.90;;;2.11;94.66;93871.13;10334233;28;2089;-85
2021/01/30 21:13:27;;;;;;;;;;;4.10;99.90;;;2.01;94.60;93865.81;10322377;28;2581;-85
2021/01/30 21:18:29;;;;;;;;;;;3.80;99.90;;;2.05;94.22;93866.88;10329770;28;2198;-83
2021/01/30 21:23:31;;;;;;;;;;;4.90;99.90;;;2.08;94.29;93868.97;10330372;28;2317;-83
2021/01/30 21:28:40;;;;;;;;;;;3.10;99.90;;;2.07;94.81;93869.25;10322557;28;2277;-85
2021/01/30 21:33:42;;;;;;;;;;;3.10;99.90;;;2.09;94.44;93875.88;10338908;28;2166;-83
2021/01/30 21:38:47;;;;;;;;;;;3.10;99.90;;;1.91;94.31;93871.13;10337023;28;2377;-84
2021/01/30 21:43:49;;;;;;;;;;;3.00;99.90;;;1.89;94.43;93873.25;10335043;28;2476;-82
2021/01/30 21:48:55;;;;;;;;;;;4.20;99.90;;;1.84;94.18;93879.31;10364294;28;2250;-82
2021/01/30 21:53:57;;;;;;;;;;;2.90;99.90;;;1.81;94.39;93871.13;10344240;28;2591;-85
2021/01/30 21:59:04;;;;;;;;;;;5.00;99.90;;;1.85;94.78;93878.28;10329562;28;2215;-84
2021/01/30 22:04:06;;;;;;;;;;;2.90;99.90;;;1.80;94.25;93875.63;10340817;28;2467;-82
2021/01/30 22:09:08;;;;;;;;;;;4.90;99.90;;;1.86;94.39;93873.78;10345436;28;2111;-85
2021/01/30 22:14:09;;;;;;;;;;;4.10;99.90;;;1.89;94.84;93865.28;10335632;28;2005;-81
2021/01/30 22:19:11;;;;;;;;;;;2.90;99.90;;;1.79;94.27;93863.47;10378551;28;2186;-85
2021/01/30 22:24:14;;;;;;;;;;;3.80;99.90;;;1.66;94.25;93858.69;10364168;28;2236;-86
2021/01/30 22:29:16;;;;;;;;;;;2.70;99.90;;;1.65;94.22;93859.72;10332516;28;2264;-84
2021/01/30 22:34:18;;;;;;;;;;;2.60;99.90;;;1.68;94.76;93861.06;10325339;28;2425;-84
2021/01/30 22:39:28;;;;;;;;;;;3.30;99.90;;;1.60;94.42;93855.25;10339521;28;2244;-84
2021/01/30 22:44:36;;;;;;;;;;;4.80;99.90;;;1.63;94.93;93860.00;10326625;28;2222;-83
2021/01/30 22:49:38;;;;;;;;;;;2.70;99.90;;;1.67;94.77;93860.28;10328622;28;2373;-84
2021/01/30 22:54:41;;;;;;;;;;;2.60;99.90;;;1.71;95.17;93865.81;10331254;28;2290;-84
2021/01/30 22:59:48;;;;;;;;;;;2.60;99.90;;;1.66;94.79;93871.94;10335769;28;2199;-83
2021/01/30 23:04:50;;;;;;;;;;;4.90;99.90;;;1.54;94.42;93864.25;10347535;28;2131;-83
2021/01/30 23:09:53;;;;;;;;;;;2.60;99.90;;;1.48;94.33;93867.16;10348464;28;1630;-82
2021/01/30 23:14:55;;;;;;;;;;;4.10;99.90;;;1.52;95.24;93863.69;10348497;28;2149;-83
2021/01/30 23:20:04;;;;;;;;;;;2.80;99.90;;;1.63;95.63;93852.06;10324030;28;2273;-82
2021/01/30 23:25:06;;;;;;;;;;;2.50;99.90;;;1.42;94.25;93857.59;10325339;28;2341;-83
2021/01/30 23:30:08;;;;;;;;;;;2.60;99.90;;;1.39;94.34;93858.91;10348406;28;2487;-83
2021/01/30 23:35:10;;;;;;;;;;;4.50;99.90;;;1.35;94.78;93860.50;10327539;28;2306;-84
2021/01/30 23:40:12;;;;;;;;;;;4.80;99.90;;;1.29;94.85;93861.56;10350238;28;2703;-84
2021/01/30 23:45:15;;;;;;;;;;;2.40;99.90;;;1.19;95.12;93858.88;10341271;28;2329;-84
2021/01/30 23:50:17;;;;;;;;;;;2.50;99.90;;;1.20;94.79;93865.75;10329096;28;2326;-84
2021/01/30 23:55:19;;;;;;;;;;;4.30;99.90;;;1.26;94.93;93862.06;10335945;28;1769;-84
